createdAt,value
2019-02-08T00:03:17.530Z,101076.55
2019-02-08T00:08:11.790Z,101081.77
2019-02-08T00:13:05.322Z,101072.95
2019-02-08T00:17:57.855Z,101067.75
2019-02-08T00:22:51.881Z,101071.05
2019-02-08T00:27:46.183Z,101079.08
2019-02-08T00:32:37.878Z,101082.25
2019-02-08T00:37:30.101Z,101079.23
2019-02-08T00:42:21.926Z,101073.20
2019-02-08T00:47:14.113Z,101072.30
2019-02-08T00:52:06.453Z,101071.27
2019-02-08T00:56:58.515Z,101075.30
2019-02-08T01:01:50.656Z,101075.28
2019-02-08T01:06:42.698Z,101073.12
2019-02-08T01:11:36.621Z,101071.84
2019-02-08T01:16:30.764Z,101071.79
2019-02-08T01:21:24.279Z,101065.58
2019-02-08T01:26:17.882Z,101063.32
2019-02-08T01:31:11.105Z,101057.83
2019-02-08T01:36:02.463Z,101061.76
2019-02-08T01:40:54.099Z,101066.61
2019-02-08T01:45:46.263Z,101058.35
2019-02-08T01:50:39.900Z,101052.28
2019-02-08T01:55:31.415Z,101059.80
2019-02-08T02:00:23.394Z,101053.83
2019-02-08T02:05:17.626Z,101060.95
2019-02-08T02:10:09.109Z,101060.05
2019-02-08T02:15:01.882Z,101050.58
2019-02-08T02:19:54.386Z,101056.81
2019-02-08T02:24:46.981Z,101053.29
2019-02-08T02:29:38.875Z,101056.48
2019-02-08T02:34:30.907Z,101057.73
2019-02-08T02:39:23.032Z,101057.91
2019-02-08T02:44:14.941Z,101053.38
2019-02-08T02:49:06.899Z,101054.53
2019-02-08T02:54:06.382Z,101049.03
2019-02-08T02:58:57.212Z,101046.35
2019-02-08T03:03:49.153Z,101053.55
2019-02-08T03:08:41.538Z,101047.36
2019-02-08T03:13:33.375Z,101046.33
2019-02-08T03:18:25.450Z,101045.03
2019-02-08T03:23:18.167Z,101040.79
2019-02-08T03:28:09.952Z,101043.68
2019-02-08T03:33:02.171Z,101038.05
2019-02-08T03:37:58.099Z,101029.05
2019-02-08T03:42:51.100Z,101017.28
2019-02-08T03:47:44.311Z,101016.16
2019-02-08T03:52:38.045Z,101018.38
2019-02-08T03:57:30.898Z,101016.02
2019-02-08T04:02:22.830Z,101009.23
2019-02-08T04:07:14.793Z,101010.08
2019-02-08T04:12:07.059Z,101010.30
2019-02-08T04:16:59.028Z,101003.63
2019-02-08T04:21:51.168Z,101005.73
2019-02-08T04:26:43.168Z,101007.30
2019-02-08T04:31:35.117Z,101009.97
2019-02-08T04:36:27.348Z,101011.23
2019-02-08T04:41:19.638Z,101018.44
2019-02-08T04:46:11.530Z,101002.77
2019-02-08T04:51:03.701Z,100999.47
2019-02-08T04:55:55.656Z,100992.65
2019-02-08T05:00:56.617Z,100998.08
2019-02-08T05:05:43.065Z,100986.77
2019-02-08T05:10:34.977Z,100987.20
2019-02-08T05:15:26.957Z,100988.91
2019-02-08T05:20:19.101Z,100989.44
2019-02-08T05:25:21.356Z,100977.70
2019-02-08T05:30:07.467Z,100982.85
2019-02-08T05:34:58.526Z,100993.15
2019-02-08T05:39:50.589Z,100983.25
2019-02-08T05:44:44.418Z,100967.17
2019-02-08T05:49:35.983Z,100971.05
2019-02-08T05:54:28.062Z,100962.71
2019-02-08T05:59:19.831Z,100960.90
2019-02-08T06:04:11.894Z,100952.77
2019-02-08T06:09:03.718Z,100946.41
2019-02-08T06:13:55.578Z,100949.44
2019-02-08T06:18:47.489Z,100946.45
2019-02-08T06:23:39.728Z,100956.78
2019-02-08T06:28:32.271Z,100950.27
2019-02-08T06:33:24.287Z,100967.72
2019-02-08T06:38:16.850Z,100976.20
2019-02-08T06:43:08.948Z,100964.24
2019-02-08T06:48:01.976Z,100968.09
2019-02-08T06:52:54.193Z,100961.81
2019-02-08T06:57:46.398Z,100952.84
2019-02-08T07:02:38.474Z,100950.78
2019-02-08T07:07:32.538Z,100960.59
2019-02-08T07:12:26.107Z,100955.55
2019-02-08T07:17:17.790Z,100948.50
2019-02-08T07:22:09.838Z,100950.78
2019-02-08T07:27:03.878Z,100946.54
2019-02-08T07:31:57.654Z,100935.83
2019-02-08T07:36:49.076Z,100939.43
2019-02-08T07:41:43.014Z,100935.44
2019-02-08T07:46:36.652Z,100940.41
2019-02-08T07:51:28.129Z,100943.05
2019-02-08T07:56:21.741Z,100934.26
2019-02-08T08:01:15.619Z,100941.64
2019-02-08T08:06:09.738Z,100945.09
2019-02-08T08:11:01.061Z,100948.83
2019-02-08T08:15:51.285Z,100958.25
2019-02-08T08:20:42.916Z,100941.76
2019-02-08T08:25:35.918Z,100955.10
2019-02-08T08:30:28.317Z,100938.05
2019-02-08T08:35:22.363Z,100957.25
2019-02-08T08:40:15.178Z,100942.44
2019-02-08T08:45:07.005Z,100939.06
2019-02-08T08:49:58.839Z,100943.20
2019-02-08T08:54:50.672Z,100945.73
2019-02-08T08:59:42.808Z,100928.33
2019-02-08T09:04:36.491Z,100937.67
2019-02-08T09:09:29.771Z,100933.05
2019-02-08T09:14:23.186Z,100913.00
2019-02-08T09:19:16.050Z,100914.46
2019-02-08T09:24:07.399Z,100912.82
2019-02-08T09:28:59.367Z,100920.32
2019-02-08T09:33:51.527Z,100920.01
2019-02-08T09:38:43.980Z,100905.19
2019-02-08T09:43:36.170Z,100908.92
2019-02-08T09:48:30.589Z,100898.56
2019-02-08T09:53:24.091Z,100885.41
2019-02-08T09:58:15.755Z,100887.34
2019-02-08T09:58:53.750Z,100883.91
2019-02-08T10:03:44.794Z,100874.41
2019-02-08T10:08:39.215Z,100878.20
2019-02-08T10:13:33.134Z,100864.71
2019-02-08T10:18:25.183Z,100865.59
2019-02-08T10:23:17.517Z,100850.10
2019-02-08T10:28:09.621Z,100858.91
2019-02-08T10:33:01.954Z,100854.80
2019-02-08T10:37:55.708Z,100854.02
2019-02-08T10:42:47.556Z,100859.27
2019-02-08T10:47:41.563Z,100849.55
2019-02-08T10:52:33.688Z,100834.00
2019-02-08T10:57:27.955Z,100836.30
2019-02-08T11:02:19.623Z,100835.09
2019-02-08T11:07:11.643Z,100814.38
2019-02-08T11:12:05.818Z,100811.19
2019-02-08T11:16:57.907Z,100805.34
2019-02-08T11:21:52.111Z,100809.63
2019-02-08T11:26:44.019Z,100796.13
2019-02-08T11:31:36.291Z,100787.73
2019-02-08T11:36:29.315Z,100777.92
2019-02-08T11:41:20.970Z,100775.95
2019-02-08T11:46:13.157Z,100766.91
2019-02-08T11:51:05.795Z,100756.29
2019-02-08T11:55:59.948Z,100754.53
2019-02-08T12:00:51.842Z,100752.30
2019-02-08T12:05:43.839Z,100740.95
2019-02-08T12:10:37.922Z,100739.81
2019-02-08T12:15:31.582Z,100714.81
2019-02-08T12:20:25.213Z,100699.80
2019-02-08T12:25:18.780Z,100704.20
2019-02-08T12:30:09.930Z,100700.05
2019-02-08T12:35:02.085Z,100692.94
2019-02-08T12:39:54.095Z,100682.68
2019-02-08T12:44:48.612Z,100679.62
2019-02-08T12:49:40.967Z,100692.55
2019-02-08T12:54:33.004Z,100665.27
2019-02-08T12:59:27.217Z,100674.36
2019-02-08T13:04:18.919Z,100654.49
2019-02-08T13:09:11.594Z,100658.45
2019-02-08T13:14:05.946Z,100642.00
2019-02-08T13:18:57.588Z,100646.27
2019-02-08T13:23:51.788Z,100631.33
2019-02-08T13:28:43.506Z,100615.00
2019-02-08T13:33:35.566Z,100607.00
2019-02-08T13:38:28.402Z,100602.95
2019-02-08T13:43:21.008Z,100593.50
2019-02-08T13:48:12.457Z,100585.22
2019-02-08T13:53:06.514Z,100585.89
2019-02-08T13:58:00.289Z,100575.34
2019-02-08T14:02:52.033Z,100567.14
2019-02-08T14:07:44.085Z,100553.74
2019-02-08T14:12:38.310Z,100547.75
2019-02-08T14:17:32.325Z,100539.38
2019-02-08T14:22:25.644Z,100528.04
2019-02-08T14:27:17.734Z,100528.46
2019-02-08T14:32:09.742Z,100531.02
2019-02-08T14:37:02.068Z,100508.88
2019-02-08T14:41:54.658Z,100512.97
2019-02-08T14:46:47.175Z,100506.42
2019-02-08T14:51:39.578Z,100502.22
2019-02-08T14:56:32.534Z,100493.52
2019-02-08T15:01:24.473Z,100496.89
2019-02-08T15:06:18.661Z,100514.22
2019-02-08T15:11:10.298Z,100489.52
2019-02-08T15:16:02.779Z,100473.05
2019-02-08T15:20:57.148Z,100492.41
2019-02-08T15:25:49.142Z,100477.16
2019-02-08T15:30:41.351Z,100470.84
2019-02-08T15:35:36.964Z,100462.76
2019-02-08T15:40:30.442Z,100435.84
2019-02-08T15:45:21.766Z,100462.36
2019-02-08T15:50:15.864Z,100441.81
2019-02-08T15:55:07.866Z,100446.23
2019-02-08T15:59:59.846Z,100436.44
2019-02-08T16:04:52.042Z,100434.14
2019-02-08T16:09:43.895Z,100420.21
2019-02-08T16:14:35.961Z,100421.35
2019-02-08T16:19:28.301Z,100422.09
2019-02-08T16:24:22.490Z,100408.09
2019-02-08T16:29:15.325Z,100389.78
2019-02-08T16:34:07.574Z,100361.41
2019-02-08T16:38:59.949Z,100373.63
2019-02-08T16:43:52.564Z,100383.63
2019-02-08T16:48:44.474Z,100364.09
2019-02-08T16:53:38.645Z,100346.20
2019-02-08T16:58:31.109Z,100359.63
2019-02-08T17:03:23.039Z,100347.43
2019-02-08T17:08:15.642Z,100351.55
2019-02-08T17:10:59.398Z,100339.08
2019-02-08T17:12:42.806Z,100348.42
2019-02-08T17:13:11.307Z,100346.02
2019-02-08T17:14:15.609Z,100340.34
2019-02-08T17:15:52.175Z,100329.38
2019-02-08T17:16:23.273Z,100350.16
2019-02-08T17:52:12.519Z,100305.06
2019-02-08T17:57:06.021Z,100300.75
2019-02-08T18:02:41.074Z,100282.82
2019-02-08T18:03:54.004Z,100269.03
2019-02-08T18:06:03.241Z,100277.35
2019-02-08T18:06:29.851Z,100268.55
2019-02-08T18:07:49.642Z,100288.28
2019-02-08T18:12:42.578Z,100271.20
2019-02-08T18:17:36.015Z,100271.40
2019-02-08T18:22:29.763Z,100264.63
2019-02-08T18:27:22.009Z,100260.63
2019-02-08T18:32:15.963Z,100256.56
2019-02-08T18:37:09.839Z,100246.67
2019-02-08T18:42:03.513Z,100243.90
2019-02-08T18:46:55.492Z,100230.29
2019-02-08T18:51:50.142Z,100220.81
2019-02-08T18:56:43.705Z,100214.70
2019-02-08T19:01:38.263Z,100217.96
2019-02-08T19:06:31.909Z,100208.64
2019-02-08T19:11:25.899Z,100194.16
2019-02-08T19:16:19.537Z,100170.67
2019-02-08T19:21:13.490Z,100150.23
2019-02-08T19:26:07.252Z,100149.20
2019-02-08T19:31:00.754Z,100151.56
2019-02-08T19:35:54.430Z,100124.30
2019-02-08T19:40:48.045Z,100117.46
2019-02-08T19:45:40.136Z,100136.84
2019-02-08T19:50:34.218Z,100087.34
2019-02-08T19:55:28.966Z,100109.48
2019-02-08T20:00:22.447Z,100089.92
2019-02-08T20:05:17.019Z,100097.75
2019-02-08T20:10:08.372Z,100062.45
2019-02-08T20:15:02.402Z,100052.69
2019-02-08T20:19:56.191Z,100057.49
2019-02-08T20:24:47.954Z,100034.69
2019-02-08T20:29:42.184Z,100034.13
2019-02-08T20:34:35.791Z,100022.77
2019-02-08T20:39:29.517Z,100027.55
2019-02-08T20:44:23.225Z,100004.74
2019-02-08T20:49:16.959Z,100010.30
2019-02-08T20:54:10.625Z,99998.47
2019-02-08T20:59:02.855Z,100003.67
2019-02-08T21:03:56.789Z,99998.80
2019-02-08T21:08:50.274Z,99992.41
2019-02-08T21:13:42.346Z,99982.38
2019-02-08T21:18:36.080Z,100001.71
2019-02-08T21:23:29.790Z,99980.48
2019-02-08T21:28:24.451Z,99966.48
2019-02-08T21:33:18.007Z,99956.42
2019-02-08T21:38:09.622Z,99961.64
2019-02-08T21:43:01.876Z,99956.09
2019-02-08T21:47:55.750Z,99954.17
2019-02-08T21:52:49.543Z,99957.05
2019-02-08T21:57:43.554Z,99959.03
2019-02-08T22:02:36.683Z,99952.76
2019-02-08T22:07:38.957Z,99957.52
2019-02-08T22:12:31.105Z,99958.56
2019-02-08T22:17:24.593Z,99931.11
2019-02-08T22:22:15.828Z,99907.35
2019-02-08T22:27:09.990Z,99917.90
2019-02-08T22:32:03.398Z,99924.65
2019-02-08T22:36:57.304Z,99899.09
2019-02-08T22:41:48.718Z,99901.49
2019-02-08T22:46:41.668Z,99903.66
2019-02-08T22:51:35.082Z,99895.25
2019-02-08T22:56:29.217Z,99887.41
2019-02-08T23:01:23.542Z,99892.88
2019-02-08T23:06:17.196Z,99873.48
2019-02-08T23:11:08.982Z,99872.88
2019-02-08T23:16:00.514Z,99888.23
2019-02-08T23:20:52.277Z,99862.99
2019-02-08T23:25:44.290Z,99866.55
2019-02-08T23:30:38.201Z,99853.27
2019-02-08T23:35:29.642Z,99842.80
2019-02-08T23:40:22.347Z,99835.43
2019-02-08T23:45:14.381Z,99824.83
2019-02-08T23:50:06.273Z,99834.91
2019-02-08T23:54:58.331Z,99840.56
2019-02-08T23:59:52.239Z,99847.83
